Portada
METAR-TAF:

METAR-TAF

Aeroports :

Aeroport de Tànger Ibn Battuta

Tànger, Marroc

latitud: 35-44N, longitud: 005-54W, altitud: 19 m

Observació

L'informe es va fer fa 17 minuts, a les 09:30 UTC
Vent 19 kt del Est
Temperatura 19°C
Humitat 60%
Pressió 1017 hPa
Visibilitat 10 km o més
Escasses núvols a una alçada de 1600 ft

METAR: GMTT 240930Z 10019KT 9999 FEW016 19/11 Q1017 NOSIG

Hora: 09:47 (09:47 UTC)

Pronòstic

L'informe es va fer fa 4 hores i 47 minuts, a les 05:00 UTC
Pronòstic vàlid del 24 a les 06 UTC al 25 a les 12 UTC
Vent 18 kt del Est
Visibilitat 10 km o més
Escasses núvols a una alçada de 3000 ft
Evolucionant progressivament
l' 24 a les 11 UTC al 24 a les 13 UTC
Vent 9 kt del Est

TAF: GMTT 240500Z 2406/2512 10018KT 9999 FEW030 BECMG 2411/2413 09009KT

Observacions i pronòstics meteorològics de més de 4000 aeroports (METAR i TAF).

Les estacions disponibles són els punts grocs i vermells al mapa.

Posi el ratolí al punt desitjat per veure el nom de l'estació.

Feu clic per veure les observacions i els pronòstics meteorològics.

Per canviar el mapa: feu clic els botons verds amb una creu de color negre per apropar; al botó verd amb un guió per allunyar la imatge; o en les fletxes verdes per a mapes adjacents.


METAR-TAF: